sensor_id;sensor_type;location;lat;lon;timestamp;P1;durP1;ratioP1;P2;durP2;ratioP2
21488;SDS011;10906;45.194;5.684;2023-04-03T05:01:38;10.57;;;7.38;;
21488;SDS011;10906;45.194;5.684;2023-04-03T05:04:25;14.02;;;7.13;;
21488;SDS011;10906;45.194;5.684;2023-04-03T05:07:09;9.02;;;7.03;;
21488;SDS011;10906;45.194;5.684;2023-04-03T05:09:54;8.77;;;7.75;;
21488;SDS011;10906;45.194;5.684;2023-04-03T05:12:38;12.02;;;7.28;;
21488;SDS011;10906;45.194;5.684;2023-04-03T05:15:23;11.82;;;7.82;;
21488;SDS011;10906;45.194;5.684;2023-04-03T05:18:07;7.72;;;6.88;;
21488;SDS011;10906;45.194;5.684;2023-04-03T05:20:52;8.98;;;7.30;;
21488;SDS011;10906;45.194;5.684;2023-04-03T05:23:36;8.35;;;7.55;;
21488;SDS011;10906;45.194;5.684;2023-04-03T05:26:21;8.50;;;7.70;;
21488;SDS011;10906;45.194;5.684;2023-04-03T05:29:06;8.27;;;7.50;;
21488;SDS011;10906;45.194;5.684;2023-04-03T05:31:50;9.15;;;7.32;;
21488;SDS011;10906;45.194;5.684;2023-04-03T05:38:05;11.25;;;8.30;;
21488;SDS011;10906;45.194;5.684;2023-04-03T05:40:49;10.77;;;7.50;;
21488;SDS011;10906;45.194;5.684;2023-04-03T05:43:34;9.63;;;7.32;;
21488;SDS011;10906;45.194;5.684;2023-04-03T05:46:24;8.70;;;7.60;;
21488;SDS011;10906;45.194;5.684;2023-04-03T05:49:09;10.45;;;8.27;;
21488;SDS011;10906;45.194;5.684;2023-04-03T05:51:53;10.55;;;7.32;;
21488;SDS011;10906;45.194;5.684;2023-04-03T05:54:38;8.65;;;7.85;;
21488;SDS011;10906;45.194;5.684;2023-04-03T05:57:23;11.15;;;8.25;;
21488;SDS011;10906;45.194;5.684;2023-04-03T06:00:11;11.57;;;8.27;;
21488;SDS011;10906;45.194;5.684;2023-04-03T06:02:58;13.18;;;7.75;;
21488;SDS011;10906;45.194;5.684;2023-04-03T06:05:44;8.82;;;7.93;;
21488;SDS011;10906;45.194;5.684;2023-04-03T06:08:38;8.60;;;7.55;;
21488;SDS011;10906;45.194;5.684;2023-04-03T06:11:23;7.97;;;7.28;;
21488;SDS011;10906;45.194;5.684;2023-04-03T06:14:11;10.43;;;7.50;;
21488;SDS011;10906;45.194;5.684;2023-04-03T06:16:56;7.75;;;7.05;;
21488;SDS011;10906;45.194;5.684;2023-04-03T06:19:40;8.73;;;7.00;;
21488;SDS011;10906;45.194;5.684;2023-04-03T06:22:27;8.02;;;7.22;;
21488;SDS011;10906;45.194;5.684;2023-04-03T06:25:13;9.02;;;7.03;;
21488;SDS011;10906;45.194;5.684;2023-04-03T06:27:58;11.38;;;8.15;;
21488;SDS011;10906;45.194;5.684;2023-04-03T06:30:48;9.13;;;8.23;;
21488;SDS011;10906;45.194;5.684;2023-04-03T06:33:36;8.60;;;7.78;;
21488;SDS011;10906;45.194;5.684;2023-04-03T06:36:36;8.68;;;7.22;;
21488;SDS011;10906;45.194;5.684;2023-04-03T06:39:23;7.97;;;7.18;;
21488;SDS011;10906;45.194;5.684;2023-04-03T06:42:18;12.50;;;7.63;;
21488;SDS011;10906;45.194;5.684;2023-04-03T06:45:03;12.27;;;7.80;;
21488;SDS011;10906;45.194;5.684;2023-04-03T06:47:54;7.40;;;6.70;;
21488;SDS011;10906;45.194;5.684;2023-04-03T06:50:50;11.00;;;6.65;;
21488;SDS011;10906;45.194;5.684;2023-04-03T06:53:43;7.05;;;6.28;;
21488;SDS011;10906;45.194;5.684;2023-04-03T06:56:36;8.02;;;6.68;;
21488;SDS011;10906;45.194;5.684;2023-04-03T06:59:27;9.35;;;6.35;;
21488;SDS011;10906;45.194;5.684;2023-04-03T07:02:15;6.97;;;5.82;;
21488;SDS011;10906;45.194;5.684;2023-04-03T07:05:05;7.38;;;5.85;;
21488;SDS011;10906;45.194;5.684;2023-04-03T07:07:53;8.50;;;6.47;;
21488;SDS011;10906;45.194;5.684;2023-04-03T07:10:38;9.23;;;6.45;;
21488;SDS011;10906;45.194;5.684;2023-04-03T07:13:22;8.77;;;6.20;;
21488;SDS011;10906;45.194;5.684;2023-04-03T07:16:07;7.82;;;5.18;;
21488;SDS011;10906;45.194;5.684;2023-04-03T07:19:08;5.93;;;5.40;;
21488;SDS011;10906;45.194;5.684;2023-04-03T07:21:53;6.18;;;5.57;;
21488;SDS011;10906;45.194;5.684;2023-04-03T07:24:38;5.63;;;5.13;;
21488;SDS011;10906;45.194;5.684;2023-04-03T07:27:26;6.13;;;4.90;;
21488;SDS011;10906;45.194;5.684;2023-04-03T07:30:10;7.80;;;5.00;;
21488;SDS011;10906;45.194;5.684;2023-04-03T07:32:58;5.20;;;4.53;;
21488;SDS011;10906;45.194;5.684;2023-04-03T07:35:43;9.15;;;5.00;;
21488;SDS011;10906;45.194;5.684;2023-04-03T07:38:36;5.43;;;4.87;;
21488;SDS011;10906;45.194;5.684;2023-04-03T07:41:24;4.95;;;4.45;;
21488;SDS011;10906;45.194;5.684;2023-04-03T07:44:08;4.38;;;3.97;;
21488;SDS011;10906;45.194;5.684;2023-04-03T07:47:01;5.63;;;4.43;;
21488;SDS011;10906;45.194;5.684;2023-04-03T07:49:53;6.15;;;5.13;;
21488;SDS011;10906;45.194;5.684;2023-04-03T07:52:45;11.02;;;6.25;;
21488;SDS011;10906;45.194;5.684;2023-04-03T07:55:31;10.07;;;5.60;;
21488;SDS011;10906;45.194;5.684;2023-04-03T07:58:23;7.70;;;5.70;;
21488;SDS011;10906;45.194;5.684;2023-04-03T08:01:16;10.07;;;5.82;;
21488;SDS011;10906;45.194;5.684;2023-04-03T08:04:01;7.93;;;5.07;;
21488;SDS011;10906;45.194;5.684;2023-04-03T08:06:53;7.57;;;5.20;;
21488;SDS011;10906;45.194;5.684;2023-04-03T08:09:55;6.90;;;6.20;;
21488;SDS011;10906;45.194;5.684;2023-04-03T08:12:39;6.65;;;5.80;;
21488;SDS011;10906;45.194;5.684;2023-04-03T08:15:26;10.00;;;6.40;;
21488;SDS011;10906;45.194;5.684;2023-04-03T08:18:20;6.93;;;6.32;;
21488;SDS011;10906;45.194;5.684;2023-04-03T08:21:23;8.75;;;6.45;;
21488;SDS011;10906;45.194;5.684;2023-04-03T08:24:10;7.53;;;6.85;;
21488;SDS011;10906;45.194;5.684;2023-04-03T08:27:36;8.45;;;6.72;;
21488;SDS011;10906;45.194;5.684;2023-04-03T08:30:20;7.13;;;6.38;;
21488;SDS011;10906;45.194;5.684;2023-04-03T08:33:14;7.10;;;6.40;;
21488;SDS011;10906;45.194;5.684;2023-04-03T08:36:07;7.18;;;6.47;;
21488;SDS011;10906;45.194;5.684;2023-04-03T08:39:07;8.80;;;7.90;;
21488;SDS011;10906;45.194;5.684;2023-04-03T08:41:52;9.65;;;8.65;;
21488;SDS011;10906;45.194;5.684;2023-04-03T08:44:50;8.52;;;7.63;;
21488;SDS011;10906;45.194;5.684;2023-04-03T08:48:09;10.00;;;8.88;;
21488;SDS011;10906;45.194;5.684;2023-04-03T08:51:17;8.52;;;7.65;;
21488;SDS011;10906;45.194;5.684;2023-04-03T08:54:21;10.77;;;8.15;;
21488;SDS011;10906;45.194;5.684;2023-04-03T08:57:15;8.80;;;7.80;;
21488;SDS011;10906;45.194;5.684;2023-04-03T09:00:24;7.63;;;6.93;;
21488;SDS011;10906;45.194;5.684;2023-04-03T09:03:20;8.63;;;7.78;;
21488;SDS011;10906;45.194;5.684;2023-04-03T09:12:34;13.98;;;9.07;;
21488;SDS011;10906;45.194;5.684;2023-04-03T09:15:34;21.85;;;10.05;;
21488;SDS011;10906;45.194;5.684;2023-04-03T09:18:41;18.67;;;9.13;;
21488;SDS011;10906;45.194;5.684;2023-04-03T09:21:44;18.20;;;8.25;;
21488;SDS011;10906;45.194;5.684;2023-04-03T09:24:35;12.57;;;7.38;;
21488;SDS011;10906;45.194;5.684;2023-04-03T09:27:45;11.70;;;7.10;;
21488;SDS011;10906;45.194;5.684;2023-04-03T09:30:58;12.63;;;6.80;;
21488;SDS011;10906;45.194;5.684;2023-04-03T09:37:43;6.82;;;5.72;;
21488;SDS011;10906;45.194;5.684;2023-04-03T09:46:37;9.50;;;5.70;;
21488;SDS011;10906;45.194;5.684;2023-04-03T09:49:32;7.13;;;5.35;;
21488;SDS011;10906;45.194;5.684;2023-04-03T09:57:00;6.70;;;4.50;;
21488;SDS011;10906;45.194;5.684;2023-04-03T09:59:58;5.20;;;4.70;;
21488;SDS011;10906;45.194;5.684;2023-04-03T10:02:57;3.47;;;3.17;;
21488;SDS011;10906;45.194;5.684;2023-04-03T10:09:28;3.10;;;2.80;;
21488;SDS011;10906;45.194;5.684;2023-04-03T10:12:37;2.10;;;1.90;;
21488;SDS011;10906;45.194;5.684;2023-04-03T10:15:28;2.80;;;1.48;;
21488;SDS011;10906;45.194;5.684;2023-04-03T10:19:37;1.73;;;1.50;;
21488;SDS011;10906;45.194;5.684;2023-04-03T15:30:38;3.22;;;2.80;;
21488;SDS011;10906;45.194;5.684;2023-04-03T15:33:24;4.78;;;2.25;;
21488;SDS011;10906;45.194;5.684;2023-04-03T15:36:12;4.53;;;2.97;;
21488;SDS011;10906;45.194;5.684;2023-04-03T15:45:47;2.50;;;2.28;;
21488;SDS011;10906;45.194;5.684;2023-04-03T16:07:41;3.30;;;2.80;;
21488;SDS011;10906;45.194;5.684;2023-04-03T16:10:31;3.53;;;2.38;;
21488;SDS011;10906;45.194;5.684;2023-04-03T16:13:22;3.67;;;2.25;;
21488;SDS011;10906;45.194;5.684;2023-04-03T16:16:12;2.95;;;2.45;;
21488;SDS011;10906;45.194;5.684;2023-04-03T16:18:59;3.13;;;2.55;;
21488;SDS011;10906;45.194;5.684;2023-04-03T16:22:06;5.78;;;2.42;;
21488;SDS011;10906;45.194;5.684;2023-04-03T16:24:53;3.08;;;2.58;;
21488;SDS011;10906;45.194;5.684;2023-04-03T16:27:40;4.07;;;2.30;;
21488;SDS011;10906;45.194;5.684;2023-04-03T16:30:45;3.15;;;2.38;;
21488;SDS011;10906;45.194;5.684;2023-04-03T16:33:40;3.45;;;2.47;;
21488;SDS011;10906;45.194;5.684;2023-04-03T16:36:24;2.90;;;2.35;;
21488;SDS011;10906;45.194;5.684;2023-04-03T16:39:09;6.25;;;2.35;;
21488;SDS011;10906;45.194;5.684;2023-04-03T16:41:54;2.83;;;2.53;;
21488;SDS011;10906;45.194;5.684;2023-04-03T16:44:38;2.40;;;2.20;;
21488;SDS011;10906;45.194;5.684;2023-04-03T16:47:23;3.30;;;2.40;;
21488;SDS011;10906;45.194;5.684;2023-04-03T16:50:15;2.50;;;2.13;;
21488;SDS011;10906;45.194;5.684;2023-04-03T16:52:59;5.57;;;2.50;;
21488;SDS011;10906;45.194;5.684;2023-04-03T16:55:44;3.17;;;2.45;;
21488;SDS011;10906;45.194;5.684;2023-04-03T16:58:28;5.38;;;2.53;;
21488;SDS011;10906;45.194;5.684;2023-04-03T17:01:17;3.42;;;2.00;;
21488;SDS011;10906;45.194;5.684;2023-04-03T17:04:03;4.63;;;2.53;;
21488;SDS011;10906;45.194;5.684;2023-04-03T17:09:32;4.13;;;2.17;;
21488;SDS011;10906;45.194;5.684;2023-04-03T17:12:26;3.00;;;2.22;;
21488;SDS011;10906;45.194;5.684;2023-04-03T17:15:10;4.35;;;2.80;;
21488;SDS011;10906;45.194;5.684;2023-04-03T17:17:55;3.40;;;2.47;;
21488;SDS011;10906;45.194;5.684;2023-04-03T17:20:39;2.88;;;2.30;;
21488;SDS011;10906;45.194;5.684;2023-04-03T17:23:28;4.07;;;2.60;;
21488;SDS011;10906;45.194;5.684;2023-04-03T17:26:13;3.00;;;2.38;;
21488;SDS011;10906;45.194;5.684;2023-04-03T17:28:58;3.05;;;2.50;;
21488;SDS011;10906;45.194;5.684;2023-04-03T17:31:42;3.42;;;2.28;;
21488;SDS011;10906;45.194;5.684;2023-04-03T17:34:27;3.95;;;2.40;;
21488;SDS011;10906;45.194;5.684;2023-04-03T17:37:12;3.08;;;2.40;;
21488;SDS011;10906;45.194;5.684;2023-04-03T17:39:56;4.63;;;2.53;;
21488;SDS011;10906;45.194;5.684;2023-04-03T17:42:46;2.83;;;2.17;;
21488;SDS011;10906;45.194;5.684;2023-04-03T17:56:49;2.55;;;2.30;;
21488;SDS011;10906;45.194;5.684;2023-04-03T18:00:02;3.75;;;2.30;;
21488;SDS011;10906;45.194;5.684;2023-04-03T18:02:50;3.42;;;2.38;;
21488;SDS011;10906;45.194;5.684;2023-04-03T18:05:39;3.30;;;2.53;;
21488;SDS011;10906;45.194;5.684;2023-04-03T18:08:24;5.00;;;2.67;;
21488;SDS011;10906;45.194;5.684;2023-04-03T18:11:09;2.92;;;2.42;;
21488;SDS011;10906;45.194;5.684;2023-04-03T18:17:15;5.95;;;2.58;;
21488;SDS011;10906;45.194;5.684;2023-04-03T18:22:58;2.47;;;1.83;;
21488;SDS011;10906;45.194;5.684;2023-04-03T18:25:42;3.85;;;2.22;;
21488;SDS011;10906;45.194;5.684;2023-04-03T18:28:27;3.05;;;2.60;;
21488;SDS011;10906;45.194;5.684;2023-04-03T18:31:14;3.95;;;2.67;;
21488;SDS011;10906;45.194;5.684;2023-04-03T18:34:00;3.42;;;2.35;;
21488;SDS011;10906;45.194;5.684;2023-04-03T18:36:44;5.68;;;2.17;;
21488;SDS011;10906;45.194;5.684;2023-04-03T18:39:30;3.53;;;2.03;;
21488;SDS011;10906;45.194;5.684;2023-04-03T18:42:16;5.70;;;2.08;;
21488;SDS011;10906;45.194;5.684;2023-04-03T18:45:05;2.15;;;1.85;;
21488;SDS011;10906;45.194;5.684;2023-04-03T18:47:57;2.97;;;1.60;;
21488;SDS011;10906;45.194;5.684;2023-04-03T18:50:41;2.65;;;2.20;;
21488;SDS011;10906;45.194;5.684;2023-04-03T18:53:26;3.97;;;1.98;;
21488;SDS011;10906;45.194;5.684;2023-04-03T18:56:10;5.47;;;1.88;;
21488;SDS011;10906;45.194;5.684;2023-04-03T18:58:55;4.32;;;2.42;;
21488;SDS011;10906;45.194;5.684;2023-04-03T19:01:40;2.22;;;1.70;;
21488;SDS011;10906;45.194;5.684;2023-04-03T19:04:24;2.33;;;1.60;;
21488;SDS011;10906;45.194;5.684;2023-04-03T19:07:10;3.40;;;1.42;;
21488;SDS011;10906;45.194;5.684;2023-04-03T19:09:54;2.67;;;1.88;;
21488;SDS011;10906;45.194;5.684;2023-04-03T19:13:02;2.88;;;1.70;;
21488;SDS011;10906;45.194;5.684;2023-04-03T19:16:05;5.07;;;1.80;;
21488;SDS011;10906;45.194;5.684;2023-04-03T19:18:50;3.08;;;1.88;;
21488;SDS011;10906;45.194;5.684;2023-04-03T19:21:37;3.00;;;2.20;;
21488;SDS011;10906;45.194;5.684;2023-04-03T19:24:23;4.22;;;2.03;;
21488;SDS011;10906;45.194;5.684;2023-04-03T19:27:08;3.30;;;2.05;;
21488;SDS011;10906;45.194;5.684;2023-04-03T19:29:52;2.28;;;1.98;;
21488;SDS011;10906;45.194;5.684;2023-04-03T19:32:37;4.80;;;2.10;;
21488;SDS011;10906;45.194;5.684;2023-04-03T19:35:21;4.93;;;2.05;;
21488;SDS011;10906;45.194;5.684;2023-04-03T19:38:09;2.90;;;1.63;;
21488;SDS011;10906;45.194;5.684;2023-04-03T19:41:12;3.65;;;1.80;;
21488;SDS011;10906;45.194;5.684;2023-04-03T19:48:15;3.92;;;2.20;;
21488;SDS011;10906;45.194;5.684;2023-04-03T19:51:10;1.80;;;1.70;;
21488;SDS011;10906;45.194;5.684;2023-04-03T19:53:59;3.83;;;2.00;;
21488;SDS011;10906;45.194;5.684;2023-04-03T19:56:50;3.58;;;2.00;;
21488;SDS011;10906;45.194;5.684;2023-04-03T19:59:37;2.45;;;1.70;;
21488;SDS011;10906;45.194;5.684;2023-04-03T20:02:24;3.65;;;1.98;;
21488;SDS011;10906;45.194;5.684;2023-04-03T20:05:11;3.42;;;2.17;;
21488;SDS011;10906;45.194;5.684;2023-04-03T20:08:03;3.05;;;2.05;;
21488;SDS011;10906;45.194;5.684;2023-04-03T20:13:59;3.10;;;2.10;;
21488;SDS011;10906;45.194;5.684;2023-04-03T20:16:49;2.90;;;2.25;;
21488;SDS011;10906;45.194;5.684;2023-04-03T20:20:17;3.80;;;2.50;;
21488;SDS011;10906;45.194;5.684;2023-04-03T20:23:04;2.50;;;2.30;;
21488;SDS011;10906;45.194;5.684;2023-04-03T20:25:52;3.80;;;2.42;;
21488;SDS011;10906;45.194;5.684;2023-04-03T20:28:38;3.47;;;2.30;;
21488;SDS011;10906;45.194;5.684;2023-04-03T20:31:23;4.38;;;2.33;;
21488;SDS011;10906;45.194;5.684;2023-04-03T20:34:12;4.03;;;2.67;;
21488;SDS011;10906;45.194;5.684;2023-04-03T20:40:59;2.90;;;2.60;;
21488;SDS011;10906;45.194;5.684;2023-04-03T20:47:13;2.65;;;2.45;;
21488;SDS011;10906;45.194;5.684;2023-04-03T20:50:27;2.78;;;2.30;;
21488;SDS011;10906;45.194;5.684;2023-04-03T20:53:24;2.83;;;2.58;;
21488;SDS011;10906;45.194;5.684;2023-04-03T20:56:09;3.03;;;2.53;;
21488;SDS011;10906;45.194;5.684;2023-04-03T20:58:55;3.75;;;2.67;;
21488;SDS011;10906;45.194;5.684;2023-04-03T21:01:46;2.95;;;2.60;;
21488;SDS011;10906;45.194;5.684;2023-04-03T21:04:44;3.05;;;2.58;;
21488;SDS011;10906;45.194;5.684;2023-04-03T21:21:20;5.15;;;2.90;;
21488;SDS011;10906;45.194;5.684;2023-04-03T21:24:13;3.65;;;2.88;;
21488;SDS011;10906;45.194;5.684;2023-04-03T21:27:05;4.30;;;3.00;;
21488;SDS011;10906;45.194;5.684;2023-04-03T21:29:52;3.30;;;2.65;;
21488;SDS011;10906;45.194;5.684;2023-04-03T21:32:49;5.28;;;2.60;;
21488;SDS011;10906;45.194;5.684;2023-04-03T21:35:47;3.83;;;2.80;;
21488;SDS011;10906;45.194;5.684;2023-04-03T21:38:56;2.95;;;2.65;;
21488;SDS011;10906;45.194;5.684;2023-04-03T21:41:43;3.85;;;3.13;;
21488;SDS011;10906;45.194;5.684;2023-04-03T21:44:33;6.90;;;2.80;;
21488;SDS011;10906;45.194;5.684;2023-04-03T21:47:20;3.75;;;2.80;;
21488;SDS011;10906;45.194;5.684;2023-04-03T21:50:14;2.92;;;2.60;;
21488;SDS011;10906;45.194;5.684;2023-04-03T21:53:06;3.75;;;2.83;;
21488;SDS011;10906;45.194;5.684;2023-04-03T21:55:56;4.22;;;2.70;;
21488;SDS011;10906;45.194;5.684;2023-04-03T21:59:09;5.90;;;3.08;;
